Time;durP1;ratioP1;P1;durP2;ratioP2;P2;SDS_P1;SDS_P2;PMS_P1;PMS_P2;Temp;Humidity;BMP_temperature;BMP_pressure;BME280_temperature;BME280_humidity;BME280_pressure;Samples;Min_cycle;Max_cycle;Signal;HPM_P1;HPM_P2
2023/09/07 00:01:18;;;;;;;13.60;13.13;;;20.80;99.90;;;;;;5012816;28;20287;-64
2023/09/07 00:03:45;;;;;;;13.50;13.07;;;20.80;99.90;;;;;;5013088;28;20202;-65
2023/09/07 00:06:12;;;;;;;13.77;13.27;;;20.80;99.90;;;;;;5015890;28;20209;-65
2023/09/07 00:08:40;;;;;;;13.82;13.32;;;20.70;99.90;;;;;;5012978;28;20221;-64
2023/09/07 00:11:07;;;;;;;13.25;12.85;;;20.60;99.90;;;;;;5017146;28;20205;-65
2023/09/07 00:13:34;;;;;;;13.65;13.15;;;20.50;99.90;;;;;;5011779;28;20197;-63
2023/09/07 00:16:02;;;;;;;13.50;13.00;;;20.40;99.90;;;;;;5011805;28;20207;-65
2023/09/07 00:18:29;;;;;;;13.45;12.95;;;20.40;99.90;;;;;;5013683;28;20208;-64
2023/09/07 00:20:56;;;;;;;13.65;13.15;;;20.40;99.90;;;;;;5016597;28;20212;-65
2023/09/07 00:23:23;;;;;;;13.32;12.82;;;20.30;99.90;;;;;;5005394;28;20205;-64
2023/09/07 00:25:51;;;;;;;14.05;13.55;;;20.30;99.90;;;;;;4996143;28;20314;-65
2023/09/07 00:28:18;;;;;;;13.43;12.93;;;20.30;99.90;;;;;;5005375;28;20311;-65
2023/09/07 00:30:45;;;;;;;13.38;12.88;;;20.10;99.90;;;;;;5032087;28;20264;-65
2023/09/07 00:33:12;;;;;;;12.63;12.23;;;20.10;99.90;;;;;;5014746;28;20747;-63
2023/09/07 00:35:38;;;;;;;14.15;13.65;;;20.00;99.90;;;;;;5015206;28;20235;-64
2023/09/07 00:38:05;;;;;;;14.68;14.18;;;19.90;99.90;;;;;;5015331;28;20204;-64
2023/09/07 00:40:32;;;;;;;14.25;13.75;;;19.90;99.90;;;;;;5014983;28;20201;-64
2023/09/07 00:43:00;;;;;;;13.00;12.60;;;19.90;99.90;;;;;;5014655;28;20206;-64
2023/09/07 00:45:27;;;;;;;12.73;12.32;;;19.90;99.90;;;;;;5014812;28;20233;-64
2023/09/07 00:47:54;;;;;;;13.07;12.68;;;19.80;99.90;;;;;;5014938;28;20260;-64
2023/09/07 00:50:22;;;;;;;13.50;13.00;;;19.80;99.90;;;;;;5014904;28;20300;-65
2023/09/07 00:52:49;;;;;;;13.63;13.13;;;19.70;99.90;;;;;;5014434;28;20648;-63
2023/09/07 00:55:16;;;;;;;13.48;13.00;;;19.60;99.90;;;;;;5014595;28;20229;-65
2023/09/07 00:57:43;;;;;;;12.40;12.00;;;19.50;99.90;;;;;;5014860;28;20201;-64
2023/09/07 01:00:12;;;;;;;12.88;12.48;;;19.50;99.90;;;;;;5015170;28;20215;-65
2023/09/07 01:02:39;;;;;;;12.50;12.10;;;19.50;99.90;;;;;;5014472;28;20224;-64
2023/09/07 01:05:07;;;;;;;12.45;12.05;;;19.40;99.90;;;;;;5014749;28;20233;-64
2023/09/07 01:07:38;;;;;;;12.50;12.10;;;19.50;99.90;;;;;;5011151;28;20230;-64
2023/09/07 01:10:06;;;;;;;12.80;12.40;;;19.50;99.90;;;;;;5002497;28;20209;-65
2023/09/07 01:12:33;;;;;;;12.45;12.05;;;19.40;99.90;;;;;;5006006;28;20259;-64
2023/09/07 01:15:00;;;;;;;12.98;12.55;;;19.40;99.90;;;;;;5000734;28;20232;-64
2023/09/07 01:17:29;;;;;;;12.65;12.25;;;19.30;99.90;;;;;;5021228;28;20240;-65
2023/09/07 01:20:05;;;;;;;12.30;11.90;;;19.30;99.90;;;;;;5019520;28;20300;-65
2023/09/07 01:22:34;;;;;;;12.40;12.00;;;19.30;99.90;;;;;;5014867;28;20201;-63
2023/09/07 01:25:01;;;;;;;11.95;11.55;;;19.40;99.90;;;;;;5014309;28;20235;-64
2023/09/07 01:27:28;;;;;;;12.32;11.93;;;19.30;99.90;;;;;;5014685;28;20221;-64
2023/09/07 01:29:55;;;;;;;12.63;12.23;;;19.50;99.90;;;;;;5001101;28;20212;-66
2023/09/07 01:32:22;;;;;;;12.63;12.23;;;19.30;99.90;;;;;;5012220;28;20624;-64
2023/09/07 01:34:50;;;;;;;12.57;12.15;;;19.30;99.90;;;;;;5014908;28;20352;-63
2023/09/07 01:37:17;;;;;;;12.40;12.00;;;19.30;99.90;;;;;;5014800;28;20215;-64
2023/09/07 01:39:45;;;;;;;12.98;12.50;;;19.30;99.90;;;;;;5014242;28;20201;-63
2023/09/07 01:42:12;;;;;;;12.35;11.95;;;19.30;99.90;;;;;;5014292;28;20261;-67
2023/09/07 01:44:39;;;;;;;12.20;11.80;;;19.20;99.90;;;;;;5013781;28;20227;-65
2023/09/07 01:47:06;;;;;;;12.27;11.88;;;19.20;99.90;;;;;;5014151;28;20213;-64
2023/09/07 01:49:33;;;;;;;13.45;12.73;;;19.20;99.90;;;;;;5013780;28;20232;-64
2023/09/07 01:52:03;;;;;;;12.20;11.80;;;19.20;99.90;;;;;;5013734;28;20207;-64
2023/09/07 01:54:30;;;;;;;12.60;12.20;;;19.20;99.90;;;;;;5014741;28;20691;-64
2023/09/07 01:56:59;;;;;;;12.00;11.60;;;19.20;99.90;;;;;;5014911;28;20667;-63
2023/09/07 01:59:26;;;;;;;12.30;11.90;;;19.30;99.90;;;;;;5006699;28;20205;-64
2023/09/07 02:01:52;;;;;;;12.20;11.80;;;19.20;99.90;;;;;;5008850;28;20245;-65
2023/09/07 02:04:19;;;;;;;12.10;11.70;;;19.30;99.90;;;;;;5003123;28;20243;-64
2023/09/07 02:06:46;;;;;;;12.00;11.60;;;19.30;99.90;;;;;;5013535;28;20675;-64
2023/09/07 02:09:13;;;;;;;11.50;11.10;;;19.30;99.90;;;;;;5013337;28;20714;-65
2023/09/07 02:11:40;;;;;;;12.20;11.70;;;19.30;99.90;;;;;;5011278;28;20300;-65
2023/09/07 02:14:10;;;;;;;12.00;11.60;;;19.40;99.90;;;;;;5012634;28;20295;-64
2023/09/07 02:16:37;;;;;;;12.57;12.18;;;19.40;99.90;;;;;;5013153;28;20212;-65
2023/09/07 02:19:06;;;;;;;11.68;11.27;;;19.40;99.90;;;;;;5013292;28;20567;-65
2023/09/07 02:21:33;;;;;;;12.88;12.38;;;19.40;99.90;;;;;;5013536;28;20216;-64
2023/09/07 02:24:00;;;;;;;13.57;13.07;;;19.30;99.90;;;;;;5013428;28;20221;-65
2023/09/07 02:26:27;;;;;;;13.02;12.63;;;19.30;99.90;;;;;;5014098;28;20211;-65
2023/09/07 02:28:53;;;;;;;12.48;12.07;;;19.30;99.90;;;;;;5014890;28;20240;-65
2023/09/07 02:31:21;;;;;;;12.15;11.75;;;19.20;99.90;;;;;;5011680;28;20205;-64
2023/09/07 02:33:48;;;;;;;12.07;11.60;;;19.30;99.90;;;;;;5013112;28;20213;-65
2023/09/07 02:36:15;;;;;;;13.60;13.10;;;19.20;99.90;;;;;;5013122;28;20211;-64
2023/09/07 02:38:42;;;;;;;12.82;12.43;;;19.20;99.90;;;;;;5013163;28;20208;-64
2023/09/07 02:41:09;;;;;;;12.77;12.38;;;19.20;99.90;;;;;;5012643;28;20209;-64
2023/09/07 02:43:36;;;;;;;12.38;11.98;;;19.20;99.90;;;;;;5012683;28;20208;-65
2023/09/07 02:46:02;;;;;;;14.38;13.88;;;19.20;99.90;;;;;;5007298;28;20212;-64
2023/09/07 02:48:30;;;;;;;12.70;12.20;;;19.20;99.90;;;;;;5015216;28;20241;-64
2023/09/07 02:50:58;;;;;;;12.32;11.93;;;19.20;99.90;;;;;;5016891;28;20208;-64
2023/09/07 02:53:25;;;;;;;12.07;11.68;;;19.10;99.90;;;;;;5006433;28;20233;-65
2023/09/07 02:55:52;;;;;;;12.05;11.65;;;19.10;99.90;;;;;;5014002;28;20232;-63
2023/09/07 02:58:19;;;;;;;12.65;12.18;;;19.20;99.90;;;;;;5013615;28;20205;-65
2023/09/07 03:00:46;;;;;;;11.43;11.02;;;19.30;99.90;;;;;;5009281;28;20249;-64
2023/09/07 03:03:14;;;;;;;11.52;11.13;;;19.50;99.90;;;;;;5009395;28;20276;-64
2023/09/07 03:05:43;;;;;;;12.20;11.80;;;19.50;99.90;;;;;;4993759;28;20318;-64
2023/09/07 03:08:11;;;;;;;12.35;11.95;;;19.50;99.90;;;;;;4993662;28;20230;-65
2023/09/07 03:10:39;;;;;;;12.10;11.70;;;19.50;99.90;;;;;;4997450;28;20671;-65
2023/09/07 03:13:06;;;;;;;12.18;11.77;;;19.50;99.90;;;;;;5014192;28;20206;-64
2023/09/07 03:15:33;;;;;;;11.88;11.48;;;19.50;99.90;;;;;;5014464;28;20307;-63
2023/09/07 03:18:00;;;;;;;12.07;11.68;;;19.50;99.90;;;;;;5014306;28;20271;-64
2023/09/07 03:20:27;;;;;;;12.02;11.63;;;19.40;99.90;;;;;;5012792;28;20233;-64
2023/09/07 03:22:56;;;;;;;12.10;11.70;;;19.30;99.90;;;;;;4999360;28;20321;-63
2023/09/07 03:25:23;;;;;;;12.25;11.85;;;19.30;99.90;;;;;;5013329;28;20279;-65
2023/09/07 03:27:49;;;;;;;12.60;12.20;;;19.30;99.90;;;;;;5013117;28;20622;-65
2023/09/07 03:30:17;;;;;;;12.63;12.15;;;19.20;99.90;;;;;;5013373;28;20235;-65
2023/09/07 03:32:45;;;;;;;12.15;11.75;;;19.20;99.90;;;;;;5014591;28;20204;-63
2023/09/07 03:35:11;;;;;;;12.45;12.05;;;19.20;99.90;;;;;;5013982;28;20299;-65
2023/09/07 03:37:38;;;;;;;12.68;12.27;;;19.10;99.90;;;;;;5013048;28;20211;-64
2023/09/07 03:40:08;;;;;;;12.98;12.48;;;19.10;99.90;;;;;;5013216;28;20208;-63
2023/09/07 03:42:36;;;;;;;12.60;12.20;;;19.00;99.90;;;;;;5013462;28;20263;-64
2023/09/07 03:45:03;;;;;;;13.00;12.60;;;19.00;99.90;;;;;;5013088;28;20225;-65
2023/09/07 03:47:30;;;;;;;13.07;12.57;;;19.00;99.90;;;;;;5012947;28;20215;-64
2023/09/07 03:49:57;;;;;;;12.63;12.23;;;18.90;99.90;;;;;;5012999;28;20233;-64
2023/09/07 03:52:24;;;;;;;12.63;12.23;;;18.90;99.90;;;;;;5013003;28;20205;-64
2023/09/07 03:54:51;;;;;;;13.10;12.70;;;18.80;99.90;;;;;;5013232;28;20229;-64
2023/09/07 03:57:20;;;;;;;12.93;12.52;;;18.80;99.90;;;;;;5014934;28;20580;-65
2023/09/07 03:59:47;;;;;;;12.00;11.60;;;18.80;99.90;;;;;;5014566;28;20216;-65
2023/09/07 04:02:13;;;;;;;12.43;12.02;;;18.80;99.90;;;;;;5014569;28;20209;-64
2023/09/07 04:04:41;;;;;;;12.57;12.18;;;18.70;99.90;;;;;;5013113;28;20252;-64
2023/09/07 04:07:08;;;;;;;12.15;11.75;;;18.70;99.90;;;;;;5012630;28;20205;-64
2023/09/07 04:09:35;;;;;;;12.07;11.68;;;18.80;99.90;;;;;;5012269;28;20688;-65
2023/09/07 04:12:03;;;;;;;12.18;11.77;;;18.70;99.90;;;;;;5013263;28;20213;-66
2023/09/07 04:14:31;;;;;;;12.23;11.82;;;18.70;99.90;;;;;;5014250;28;20292;-65
2023/09/07 04:16:58;;;;;;;12.43;12.02;;;18.70;99.90;;;;;;5014670;28;20760;-65
2023/09/07 04:19:25;;;;;;;12.93;12.52;;;18.70;99.90;;;;;;5010236;28;20208;-65
2023/09/07 04:21:52;;;;;;;13.20;12.80;;;18.70;99.90;;;;;;5031357;28;20268;-59
2023/09/07 04:24:19;;;;;;;13.55;13.05;;;18.90;99.90;;;;;;5009970;28;20242;-58
2023/09/07 04:26:45;;;;;;;12.50;12.10;;;19.50;99.90;;;;;;5008319;28;20695;-58
2023/09/07 04:29:12;;;;;;;12.60;12.20;;;19.70;99.90;;;;;;5015366;28;20225;-58
2023/09/07 04:31:41;;;;;;;12.68;12.27;;;19.90;99.90;;;;;;5011695;28;20209;-58
2023/09/07 04:34:08;;;;;;;12.63;12.23;;;20.10;99.90;;;;;;5001430;28;20229;-58
2023/09/07 04:36:35;;;;;;;12.35;11.95;;;20.30;99.90;;;;;;5014834;28;20213;-58
2023/09/07 04:39:03;;;;;;;13.38;12.98;;;20.50;99.90;;;;;;5017477;28;20209;-58
2023/09/07 04:41:30;;;;;;;12.40;12.00;;;20.70;99.90;;;;;;5013886;28;20209;-58
2023/09/07 04:43:58;;;;;;;13.02;12.57;;;20.70;99.90;;;;;;5012831;28;20291;-59
2023/09/07 04:46:25;;;;;;;12.32;11.82;;;20.80;99.90;;;;;;5009781;28;20205;-58
2023/09/07 04:48:53;;;;;;;12.82;12.43;;;20.80;99.90;;;;;;5013072;28;20249;-58
2023/09/07 04:51:21;;;;;;;12.65;12.25;;;20.80;99.90;;;;;;5017416;28;20285;-57
2023/09/07 04:53:48;;;;;;;13.90;13.40;;;20.80;99.90;;;;;;5004208;28;20218;-58
2023/09/07 04:56:16;;;;;;;13.55;12.95;;;20.90;99.90;;;;;;5003094;28;20202;-58
2023/09/07 04:58:43;;;;;;;12.88;12.48;;;20.90;99.90;;;;;;5011996;28;20229;-58
2023/09/07 05:01:11;;;;;;;14.00;13.50;;;20.80;99.90;;;;;;5009931;28;20205;-57
2023/09/07 05:03:39;;;;;;;14.02;13.52;;;20.80;99.90;;;;;;5012606;28;20211;-57
2023/09/07 05:06:08;;;;;;;13.93;13.43;;;20.70;99.90;;;;;;5014725;28;20201;-58
2023/09/07 05:08:35;;;;;;;14.02;13.52;;;20.70;99.90;;;;;;5014827;28;20232;-58
2023/09/07 05:11:03;;;;;;;13.52;13.02;;;20.80;99.90;;;;;;5014670;28;20212;-57
2023/09/07 05:13:30;;;;;;;13.63;13.13;;;20.70;99.90;;;;;;5014771;28;20607;-58
2023/09/07 05:15:59;;;;;;;13.32;12.93;;;20.70;99.90;;;;;;5015043;28;20625;-58
2023/09/07 05:18:25;;;;;;;13.82;13.32;;;20.70;99.90;;;;;;5014669;28;20841;-57
2023/09/07 05:20:52;;;;;;;13.52;13.02;;;20.60;99.90;;;;;;5014644;28;20549;-57
2023/09/07 05:23:21;;;;;;;13.23;12.63;;;20.60;99.90;;;;;;5014495;28;20215;-58
2023/09/07 05:25:50;;;;;;;13.02;12.52;;;20.50;99.90;;;;;;5011646;28;20225;-60
2023/09/07 05:28:17;;;;;;;12.73;12.33;;;20.40;99.90;;;;;;5014629;28;20633;-58
2023/09/07 05:30:45;;;;;;;14.05;13.55;;;20.30;99.90;;;;;;5011201;28;20226;-59
2023/09/07 05:33:12;;;;;;;13.85;13.35;;;20.20;99.90;;;;;;5001462;28;20202;-59
2023/09/07 05:35:40;;;;;;;12.82;12.43;;;20.20;99.90;;;;;;5007584;28;20236;-59
2023/09/07 05:38:07;;;;;;;13.77;13.27;;;20.20;99.90;;;;;;5006004;28;20197;-59
2023/09/07 05:40:37;;;;;;;14.02;13.52;;;20.20;99.90;;;;;;4995743;28;20673;-63
2023/09/07 05:43:04;;;;;;;14.25;13.75;;;20.20;99.90;;;;;;5006314;28;20675;-63
2023/09/07 05:45:31;;;;;;;13.82;13.32;;;20.10;99.90;;;;;;5003616;28;20308;-62
2023/09/07 05:47:58;;;;;;;13.93;13.43;;;19.90;99.90;;;;;;4999664;28;20205;-63
2023/09/07 05:50:25;;;;;;;14.48;13.98;;;19.70;99.90;;;;;;5013801;28;20233;-63
2023/09/07 05:52:52;;;;;;;17.35;16.67;;;19.70;99.90;;;;;;5016072;28;20213;-63
2023/09/07 05:55:19;;;;;;;16.10;15.50;;;19.50;99.90;;;;;;5017429;28;20251;-64
2023/09/07 05:57:47;;;;;;;15.37;14.77;;;19.20;99.90;;;;;;5011967;28;20209;-62
2023/09/07 06:00:16;;;;;;;15.55;15.05;;;18.90;99.90;;;;;;5012384;28;20293;-62
2023/09/07 06:02:44;;;;;;;16.55;15.95;;;18.70;99.90;;;;;;5012070;28;20343;-63
2023/09/07 06:05:11;;;;;;;14.77;14.27;;;18.50;99.90;;;;;;5011835;28;20286;-63
2023/09/07 06:07:38;;;;;;;15.73;15.18;;;18.30;99.90;;;;;;5004142;28;20205;-63
2023/09/07 06:10:05;;;;;;;15.13;14.63;;;18.30;99.90;;;;;;5012747;28;20235;-64
2023/09/07 06:12:32;;;;;;;15.00;14.48;;;18.30;99.90;;;;;;5012868;28;20209;-63
2023/09/07 06:15:00;;;;;;;15.95;15.35;;;18.20;99.90;;;;;;5009585;28;20232;-63
2023/09/07 06:17:28;;;;;;;15.57;15.05;;;18.20;99.90;;;;;;5011431;28;20204;-63
2023/09/07 06:19:55;;;;;;;16.52;15.93;;;18.20;99.90;;;;;;5014311;28;20292;-62
2023/09/07 06:22:21;;;;;;;14.90;14.38;;;18.00;99.90;;;;;;5013575;28;20215;-63
2023/09/07 06:24:48;;;;;;;17.10;16.50;;;18.00;99.90;;;;;;5012913;28;20240;-63
2023/09/07 06:27:15;;;;;;;16.55;15.98;;;18.00;99.90;;;;;;5005455;28;20295;-63
2023/09/07 06:29:42;;;;;;;15.02;14.43;;;18.10;99.90;;;;;;5012845;28;20225;-63
2023/09/07 06:32:10;;;;;;;16.92;16.35;;;18.10;99.90;;;;;;5007074;28;20205;-63
2023/09/07 06:34:37;;;;;;;18.08;17.42;;;18.00;99.90;;;;;;5002733;28;20221;-64
2023/09/07 06:37:05;;;;;;;15.43;14.85;;;18.10;99.90;;;;;;5013012;28;20205;-63
2023/09/07 06:39:33;;;;;;;16.33;15.73;;;18.30;99.90;;;;;;5012593;28;20292;-62
2023/09/07 06:42:00;;;;;;;19.17;18.48;;;18.40;99.90;;;;;;5013313;28;20213;-62
2023/09/07 06:44:27;;;;;;;17.58;16.95;;;18.40;99.90;;;;;;5014380;28;20441;-62
2023/09/07 06:46:54;;;;;;;17.30;16.70;;;18.50;99.90;;;;;;5012597;28;20208;-63
2023/09/07 06:49:22;;;;;;;20.33;19.60;;;18.60;99.90;;;;;;5012718;28;20228;-62
2023/09/07 06:51:49;;;;;;;14.98;14.48;;;18.60;99.90;;;;;;5012295;28;20202;-64
2023/09/07 06:54:16;;;;;;;14.47;13.87;;;18.70;99.90;;;;;;5012748;28;20221;-62
2023/09/07 06:56:43;;;;;;;15.73;15.18;;;18.80;99.90;;;;;;5004743;28;20210;-62
2023/09/07 06:59:09;;;;;;;15.63;15.02;;;18.80;99.90;;;;;;5021646;28;20541;-63
2023/09/07 07:01:36;;;;;;;15.50;14.98;;;18.90;99.90;;;;;;5010472;28;20236;-64
2023/09/07 07:04:03;;;;;;;15.68;15.13;;;19.00;99.90;;;;;;5017567;28;20228;-63
2023/09/07 07:06:31;;;;;;;16.90;16.30;;;19.00;99.90;;;;;;5005220;28;20289;-63
2023/09/07 07:08:58;;;;;;;15.93;15.32;;;19.00;99.90;;;;;;5012163;28;20213;-63
2023/09/07 07:11:25;;;;;;;16.58;15.98;;;19.10;99.90;;;;;;5012456;28;20227;-63
2023/09/07 07:13:52;;;;;;;16.52;15.93;;;19.20;99.90;;;;;;5011477;28;20201;-63
2023/09/07 07:16:19;;;;;;;16.00;15.48;;;19.30;99.90;;;;;;5005333;28;20568;-62
2023/09/07 07:18:46;;;;;;;15.63;15.02;;;19.50;99.90;;;;;;5011057;28;20208;-64
2023/09/07 07:21:13;;;;;;;15.52;15.02;;;19.60;99.90;;;;;;5003858;28;20862;-63
2023/09/07 07:23:41;;;;;;;14.40;13.90;;;19.70;99.90;;;;;;5011646;28;20201;-63
2023/09/07 07:26:08;;;;;;;16.27;15.73;;;19.80;99.90;;;;;;5014849;28;20197;-63
2023/09/07 07:28:35;;;;;;;14.88;14.38;;;19.90;99.90;;;;;;5012422;28;20201;-63
2023/09/07 07:31:08;;;;;;;15.27;14.68;;;20.00;99.90;;;;;;5012165;28;20303;-63
2023/09/07 07:33:35;;;;;;;14.20;13.70;;;20.10;99.90;;;;;;5011557;28;20201;-63
2023/09/07 07:36:02;;;;;;;13.63;13.13;;;20.20;99.90;;;;;;5011702;28;20229;-63
2023/09/07 07:38:28;;;;;;;15.57;15.02;;;20.30;99.90;;;;;;5003865;28;20221;-63
2023/09/07 07:40:57;;;;;;;14.90;14.40;;;20.40;99.90;;;;;;4992235;28;20647;-63
2023/09/07 07:43:24;;;;;;;14.48;13.98;;;20.60;99.90;;;;;;4992134;28;20204;-63
2023/09/07 07:45:52;;;;;;;14.45;13.95;;;20.70;99.90;;;;;;4994912;28;20228;-63
2023/09/07 07:48:19;;;;;;;15.30;14.80;;;20.80;99.90;;;;;;4992228;28;20217;-63
2023/09/07 07:50:47;;;;;;;15.60;15.10;;;20.90;99.90;;;;;;4991868;28;20717;-63
2023/09/07 07:53:14;;;;;;;15.57;14.98;;;21.10;99.90;;;;;;4991722;28;20198;-63
2023/09/07 07:55:41;;;;;;;15.73;15.23;;;21.20;99.90;;;;;;4992160;28;20310;-63
2023/09/07 07:58:10;;;;;;;15.27;14.68;;;21.40;99.90;;;;;;4991739;28;20703;-63
2023/09/07 08:00:37;;;;;;;14.85;14.35;;;21.50;99.90;;;;;;4992188;28;20204;-64
2023/09/07 08:03:06;;;;;;;14.98;14.48;;;21.70;99.90;;;;;;4991632;28;20740;-63
2023/09/07 08:05:34;;;;;;;15.60;15.10;;;21.70;99.90;;;;;;4991605;28;20775;-65
2023/09/07 08:08:01;;;;;;;15.85;15.25;;;21.80;99.90;;;;;;4991590;28;20319;-63
2023/09/07 08:10:28;;;;;;;14.90;14.40;;;21.90;99.90;;;;;;4992221;28;20702;-63
2023/09/07 08:12:56;;;;;;;16.00;15.40;;;22.00;99.90;;;;;;4994542;28;20206;-64
2023/09/07 08:15:24;;;;;;;16.75;16.15;;;22.20;99.90;;;;;;4993998;28;20725;-62
2023/09/07 08:17:52;;;;;;;16.13;15.52;;;22.30;99.90;;;;;;4992288;28;20218;-63
2023/09/07 08:20:19;;;;;;;16.33;15.73;;;22.30;99.90;;;;;;4991567;28;20205;-64
2023/09/07 08:22:45;;;;;;;17.10;16.50;;;22.50;99.90;;;;;;4991069;28;20214;-64
2023/09/07 08:25:14;;;;;;;19.63;18.92;;;22.60;99.90;;;;;;4993911;28;20237;-63
2023/09/07 08:27:44;;;;;;;16.67;15.98;;;22.70;99.90;;;;;;4995548;28;20229;-64
2023/09/07 08:30:15;;;;;;;16.85;16.25;;;22.80;99.90;;;;;;4993377;28;20279;-64
2023/09/07 08:32:43;;;;;;;16.50;15.90;;;22.80;99.90;;;;;;4991311;28;20598;-63
2023/09/07 08:35:12;;;;;;;19.30;18.60;;;22.90;99.90;;;;;;4991303;28;20226;-63
2023/09/07 08:37:39;;;;;;;16.98;16.38;;;23.00;99.90;;;;;;4991766;28;20201;-64
2023/09/07 08:40:08;;;;;;;19.60;18.90;;;23.00;99.90;;;;;;4994238;28;20690;-63
2023/09/07 08:42:37;;;;;;;18.50;17.90;;;23.20;99.90;;;;;;4997743;28;20304;-63
2023/09/07 08:45:06;;;;;;;17.73;17.13;;;23.30;99.90;;;;;;5017086;28;20735;-63
2023/09/07 08:47:35;;;;;;;17.30;16.70;;;23.30;99.90;;;;;;5009454;28;20225;-64
2023/09/07 08:50:06;;;;;;;17.08;16.48;;;23.50;99.90;;;;;;5012224;28;20226;-65
2023/09/07 08:52:33;;;;;;;17.10;16.50;;;23.60;99.90;;;;;;5003457;28;20201;-64
2023/09/07 08:55:00;;;;;;;16.15;15.55;;;23.70;99.90;;;;;;5016456;28;20316;-62
2023/09/07 08:57:30;;;;;;;17.85;17.25;;;23.80;99.90;;;;;;5021517;28;20676;-64
2023/09/07 08:59:57;;;;;;;16.75;16.15;;;23.90;99.90;;;;;;5028952;28;20210;-63
2023/09/07 09:02:24;;;;;;;16.10;15.50;;;24.00;99.90;;;;;;5020843;28;20212;-64
2023/09/07 09:04:52;;;;;;;14.35;13.85;;;24.10;99.90;;;;;;5017674;28;20300;-63
2023/09/07 09:07:20;;;;;;;20.63;19.83;;;24.20;99.90;;;;;;5116764;22;20767;-63
2023/09/07 09:09:47;;;;;;;15.82;15.32;;;24.30;99.90;;;;;;5104001;28;20214;-62
2023/09/07 09:12:14;;;;;;;15.52;14.98;;;24.20;99.90;;;;;;5094737;28;20373;-63
2023/09/07 09:14:44;;;;;;;15.80;15.30;;;24.30;99.90;;;;;;5094907;28;20396;-64
2023/09/07 09:17:13;;;;;;;13.80;13.30;;;24.50;99.90;;;;;;5108961;28;20233;-64
2023/09/07 09:19:42;;;;;;;14.68;14.18;;;24.70;99.90;;;;;;5132871;27;20202;-62
2023/09/07 09:22:09;;;;;;;14.77;14.27;;;24.90;99.90;;;;;;5138521;28;20196;-63
2023/09/07 09:24:37;;;;;;;15.00;14.50;;;25.00;99.90;;;;;;5137299;28;20220;-61
2023/09/07 09:27:04;;;;;;;19.38;18.65;;;25.10;99.90;;;;;;5139011;27;20237;-61
2023/09/07 09:29:34;;;;;;;16.15;15.55;;;25.00;99.90;;;;;;5127741;28;20225;-63
2023/09/07 09:32:04;;;;;;;16.50;15.90;;;25.00;99.90;;;;;;5122244;28;20218;-62
2023/09/07 09:34:34;;;;;;;13.77;13.27;;;25.20;99.90;;;;;;5122377;28;20202;-63
2023/09/07 09:37:01;;;;;;;13.93;13.38;;;25.30;99.90;;;;;;5111625;28;20218;-63
2023/09/07 09:39:28;;;;;;;16.67;16.08;;;25.50;99.90;;;;;;5119279;28;20202;-61
2023/09/07 09:41:57;;;;;;;15.38;14.77;;;25.60;99.90;;;;;;5118638;28;20202;-63
2023/09/07 09:44:25;;;;;;;14.57;14.07;;;25.70;99.90;;;;;;5119239;28;20202;-61
2023/09/07 09:46:54;;;;;;;15.38;14.88;;;25.70;99.90;;;;;;5118134;28;20225;-62
2023/09/07 09:49:21;;;;;;;16.27;15.68;;;25.80;99.90;;;;;;5119886;28;20201;-62
2023/09/07 09:51:50;;;;;;;14.65;14.13;;;25.80;99.90;;;;;;5120673;28;20647;-62
2023/09/07 09:54:18;;;;;;;14.68;14.18;;;25.90;99.90;;;;;;5118530;28;20843;-63
2023/09/07 09:56:44;;;;;;;14.27;13.77;;;26.00;99.90;;;;;;5119338;28;20226;-62
2023/09/07 09:59:13;;;;;;;15.15;14.55;;;26.10;99.90;;;;;;5119036;28;20285;-62
2023/09/07 10:01:45;;;;;;;14.40;13.90;;;26.30;99.90;;;;;;5117052;28;20667;-61
2023/09/07 10:04:15;;;;;;;14.25;13.75;;;26.30;99.90;;;;;;5120588;28;20204;-62
2023/09/07 10:06:52;;;;;;;15.02;14.52;;;26.40;99.90;;;;;;5123319;28;20260;-61
2023/09/07 10:09:19;;;;;;;15.50;15.00;;;26.40;99.90;;;;;;5121269;28;20210;-66
2023/09/07 10:11:53;;;;;;;15.00;14.50;;;26.50;99.90;;;;;;5117930;28;20824;-63
2023/09/07 10:14:21;;;;;;;14.60;14.10;;;26.50;99.90;;;;;;5115807;28;20754;-63
2023/09/07 10:16:51;;;;;;;16.80;16.20;;;26.60;99.90;;;;;;5115602;28;20228;-63
2023/09/07 10:19:19;;;;;;;16.50;15.90;;;26.80;99.90;;;;;;5115082;28;20288;-61
2023/09/07 10:21:46;;;;;;;16.38;15.77;;;26.90;99.90;;;;;;5115341;28;20208;-63
2023/09/07 10:24:25;;;;;;;22.08;21.30;;;27.00;99.90;;;;;;5116531;28;20198;-63
2023/09/07 10:26:58;;;;;;;17.08;16.48;;;27.10;99.90;;;;;;5116668;28;20229;-62
2023/09/07 10:29:26;;;;;;;22.95;22.05;;;27.10;99.90;;;;;;5117165;28;20245;-62
2023/09/07 10:31:53;;;;;;;18.52;17.83;;;27.10;99.90;;;;;;5115030;28;20224;-62
2023/09/07 10:34:22;;;;;;;18.40;17.67;;;27.00;99.90;;;;;;5115929;28;20664;-64
2023/09/07 10:36:52;;;;;;;16.13;15.57;;;27.00;99.90;;;;;;5114385;28;20226;-62
2023/09/07 10:39:19;;;;;;;19.73;19.02;;;27.00;99.90;;;;;;5114687;28;20686;-64
2023/09/07 10:41:47;;;;;;;24.17;23.17;;;27.00;99.90;;;;;;5113969;28;20212;-62
2023/09/07 10:44:14;;;;;;;15.80;15.23;;;27.10;99.90;;;;;;5114422;28;20259;-63
2023/09/07 10:46:42;;;;;;;17.73;17.13;;;27.20;99.90;;;;;;5114789;28;20222;-61
2023/09/07 10:49:12;;;;;;;17.13;16.52;;;27.30;99.90;;;;;;5113973;28;20220;-63
2023/09/07 10:51:44;;;;;;;17.33;16.73;;;27.30;99.90;;;;;;5113995;28;20221;-61
2023/09/07 10:54:18;;;;;;;17.42;16.83;;;27.30;99.90;;;;;;5114303;28;20202;-62
2023/09/07 10:56:46;;;;;;;15.90;15.30;;;27.40;99.90;;;;;;5113840;28;20218;-62
2023/09/07 10:59:14;;;;;;;19.08;18.20;;;27.50;99.90;;;;;;5113807;28;20206;-62
2023/09/07 11:01:42;;;;;;;18.45;17.75;;;27.60;99.90;;;;;;5114096;28;20220;-62
2023/09/07 11:04:11;;;;;;;19.70;18.90;;;27.70;99.90;;;;;;5113284;28;20282;-61
2023/09/07 11:06:38;;;;;;;18.77;18.10;;;27.70;99.90;;;;;;5112992;28;20229;-62
2023/09/07 11:09:08;;;;;;;18.60;17.90;;;27.80;99.90;;;;;;5113202;28;20204;-62
2023/09/07 11:11:36;;;;;;;16.90;16.30;;;27.90;99.90;;;;;;5112772;28;20218;-62
2023/09/07 11:14:04;;;;;;;32.15;30.85;;;28.00;99.90;;;;;;5112921;28;20627;-61
2023/09/07 11:16:31;;;;;;;21.35;20.45;;;28.00;99.90;;;;;;5108998;28;20222;-62
2023/09/07 11:19:04;;;;;;;20.75;20.02;;;27.90;99.90;;;;;;5111115;28;20280;-62
2023/09/07 11:21:32;;;;;;;20.38;19.67;;;28.10;99.90;;;;;;5110815;28;20202;-62
2023/09/07 11:23:59;;;;;;;24.40;23.42;;;28.20;99.90;;;;;;5110529;28;20639;-61
2023/09/07 11:26:26;;;;;;;31.40;30.27;;;28.20;99.90;;;;;;5110806;28;20308;-63
2023/09/07 11:28:53;;;;;;;29.60;28.55;;;28.10;99.90;;;;;;5110275;28;20206;-62
2023/09/07 11:31:20;;;;;;;35.50;34.25;;;28.20;99.90;;;;;;5116216;28;20222;-62
2023/09/07 11:33:48;;;;;;;49.28;47.35;;;28.30;99.90;;;;;;5113729;28;20213;-64
2023/09/07 11:36:16;;;;;;;36.47;35.17;;;28.10;99.90;;;;;;5114690;28;20229;-61
2023/09/07 11:38:44;;;;;;;48.67;46.88;;;28.00;99.90;;;;;;5115107;28;20208;-62
2023/09/07 11:41:10;;;;;;;40.83;39.38;;;28.20;99.90;;;;;;5114120;28;20190;-62
2023/09/07 11:43:39;;;;;;;47.15;45.42;;;28.10;99.90;;;;;;5111568;28;20679;-63
2023/09/07 11:46:06;;;;;;;38.35;36.92;;;28.20;99.90;;;;;;5110185;28;20662;-62
2023/09/07 11:48:34;;;;;;;51.08;49.13;;;28.20;99.90;;;;;;5110360;28;20224;-62
2023/09/07 11:51:01;;;;;;;38.20;36.80;;;28.40;99.90;;;;;;5110054;28;20699;-61
2023/09/07 11:53:29;;;;;;;41.65;40.13;;;28.50;99.90;;;;;;5109944;28;20206;-63
2023/09/07 11:55:58;;;;;;;46.33;44.55;;;28.50;99.90;;;;;;5109654;28;20228;-61
2023/09/07 11:58:26;;;;;;;58.65;55.90;;;28.50;99.90;;;;;;5109912;28;20213;-61
2023/09/07 12:00:53;;;;;;;49.30;47.50;;;28.40;99.90;;;;;;5108539;28;20202;-62
2023/09/07 12:03:20;;;;;;;39.30;37.85;;;28.40;99.90;;;;;;5110965;28;20246;-61
2023/09/07 12:05:47;;;;;;;47.58;45.88;;;28.60;99.90;;;;;;5110737;28;20236;-61
2023/09/07 12:08:14;;;;;;;46.42;44.72;;;28.70;99.90;;;;;;5111892;28;20208;-61
2023/09/07 12:10:42;;;;;;;87.18;83.50;;;28.90;99.90;;;;;;5116246;28;20194;-63
2023/09/07 12:13:10;;;;;;;54.47;52.50;;;28.80;99.90;;;;;;5106090;28;20308;-62
2023/09/07 12:15:36;;;;;;;43.83;42.25;;;28.80;99.90;;;;;;5111500;28;20249;-62
2023/09/07 12:18:03;;;;;;;56.17;54.17;;;29.00;99.90;;;;;;5111430;28;20212;-62
2023/09/07 12:20:30;;;;;;;56.72;54.67;;;29.20;99.90;;;;;;5111821;28;20658;-62
2023/09/07 12:22:57;;;;;;;61.17;58.97;;;29.30;99.90;;;;;;5111649;28;20194;-62
2023/09/07 12:25:25;;;;;;;122.97;115.03;;;29.20;99.90;;;;;;5111720;28;20304;-62
2023/09/07 12:27:53;;;;;;;62.45;60.22;;;29.30;99.90;;;;;;5111590;28;20583;-62